sensor_id;sensor_type;location;lat;lon;timestamp;temperature;humidity
74968;SHT30;63523;51.880;12.630;2023-06-22T00:00:56;20.73;74.34
74968;SHT30;63523;51.880;12.630;2023-06-22T00:03:23;20.72;74.73
74968;SHT30;63523;51.880;12.630;2023-06-22T00:05:50;20.73;75.34
74968;SHT30;63523;51.880;12.630;2023-06-22T00:08:16;20.79;75.95
74968;SHT30;63523;51.880;12.630;2023-06-22T00:10:42;20.79;75.84
74968;SHT30;63523;51.880;12.630;2023-06-22T00:13:08;20.80;75.87
74968;SHT30;63523;51.880;12.630;2023-06-22T00:15:33;20.81;75.98
74968;SHT30;63523;51.880;12.630;2023-06-22T00:17:59;20.86;76.15
74968;SHT30;63523;51.880;12.630;2023-06-22T00:20:25;20.84;76.40
74968;SHT30;63523;51.880;12.630;2023-06-22T00:22:54;20.89;76.54
74968;SHT30;63523;51.880;12.630;2023-06-22T00:25:20;20.93;77.31
74968;SHT30;63523;51.880;12.630;2023-06-22T00:27:45;20.97;77.58
74968;SHT30;63523;51.880;12.630;2023-06-22T00:30:11;20.98;77.42
74968;SHT30;63523;51.880;12.630;2023-06-22T00:32:36;21.06;77.41
74968;SHT30;63523;51.880;12.630;2023-06-22T00:35:02;21.11;77.37
74968;SHT30;63523;51.880;12.630;2023-06-22T00:37:27;21.12;77.43
74968;SHT30;63523;51.880;12.630;2023-06-22T00:39:55;21.11;76.97
74968;SHT30;63523;51.880;12.630;2023-06-22T00:42:21;21.12;76.67
74968;SHT30;63523;51.880;12.630;2023-06-22T00:44:46;21.18;76.38
74968;SHT30;63523;51.880;12.630;2023-06-22T00:47:13;21.31;77.11
74968;SHT30;63523;51.880;12.630;2023-06-22T00:49:40;21.38;77.54
74968;SHT30;63523;51.880;12.630;2023-06-22T00:52:07;21.38;77.11
74968;SHT30;63523;51.880;12.630;2023-06-22T00:54:42;21.39;76.36
74968;SHT30;63523;51.880;12.630;2023-06-22T00:57:12;21.43;75.84
74968;SHT30;63523;51.880;12.630;2023-06-22T00:59:44;21.45;75.16
74968;SHT30;63523;51.880;12.630;2023-06-22T01:02:10;21.51;74.42
74968;SHT30;63523;51.880;12.630;2023-06-22T01:04:38;21.60;73.16
74968;SHT30;63523;51.880;12.630;2023-06-22T01:07:31;21.72;71.19
74968;SHT30;63523;51.880;12.630;2023-06-22T01:12:30;22.08;68.68
74968;SHT30;63523;51.880;12.630;2023-06-22T01:15:10;22.27;67.27
74968;SHT30;63523;51.880;12.630;2023-06-22T01:17:40;22.42;66.08
74968;SHT30;63523;51.880;12.630;2023-06-22T01:20:07;22.59;65.44
74968;SHT30;63523;51.880;12.630;2023-06-22T01:22:46;22.63;65.05
74968;SHT30;63523;51.880;12.630;2023-06-22T01:25:22;22.69;64.94
74968;SHT30;63523;51.880;12.630;2023-06-22T01:28:03;22.66;64.76
74968;SHT30;63523;51.880;12.630;2023-06-22T01:30:30;22.66;64.53
74968;SHT30;63523;51.880;12.630;2023-06-22T01:32:59;22.70;64.61
74968;SHT30;63523;51.880;12.630;2023-06-22T01:35:26;22.70;64.86
74968;SHT30;63523;51.880;12.630;2023-06-22T01:37:52;22.66;66.31
74968;SHT30;63523;51.880;12.630;2023-06-22T01:40:18;22.62;67.73
74968;SHT30;63523;51.880;12.630;2023-06-22T01:42:44;22.55;67.18
74968;SHT30;63523;51.880;12.630;2023-06-22T01:45:10;22.49;66.92
74968;SHT30;63523;51.880;12.630;2023-06-22T01:47:36;22.45;67.26
74968;SHT30;63523;51.880;12.630;2023-06-22T01:50:02;22.40;67.53
74968;SHT30;63523;51.880;12.630;2023-06-22T01:52:28;22.48;67.79
74968;SHT30;63523;51.880;12.630;2023-06-22T01:54:53;22.51;68.65
74968;SHT30;63523;51.880;12.630;2023-06-22T01:57:19;22.44;68.80
74968;SHT30;63523;51.880;12.630;2023-06-22T02:00:03;22.35;69.15
74968;SHT30;63523;51.880;12.630;2023-06-22T02:02:39;22.28;69.53
74968;SHT30;63523;51.880;12.630;2023-06-22T02:05:07;22.22;69.60
74968;SHT30;63523;51.880;12.630;2023-06-22T02:07:41;22.31;69.09
74968;SHT30;63523;51.880;12.630;2023-06-22T02:10:07;22.34;69.70
74968;SHT30;63523;51.880;12.630;2023-06-22T02:12:34;22.28;70.40
74968;SHT30;63523;51.880;12.630;2023-06-22T02:15:00;22.18;69.98
74968;SHT30;63523;51.880;12.630;2023-06-22T02:17:26;22.08;70.47
74968;SHT30;63523;51.880;12.630;2023-06-22T02:19:52;22.00;70.24
74968;SHT30;63523;51.880;12.630;2023-06-22T02:22:17;21.96;70.47
74968;SHT30;63523;51.880;12.630;2023-06-22T02:24:42;21.98;69.11
74968;SHT30;63523;51.880;12.630;2023-06-22T02:27:08;22.08;68.36
74968;SHT30;63523;51.880;12.630;2023-06-22T02:29:33;22.15;68.30
74968;SHT30;63523;51.880;12.630;2023-06-22T02:31:58;22.18;68.56
74968;SHT30;63523;51.880;12.630;2023-06-22T02:34:24;22.08;68.31
74968;SHT30;63523;51.880;12.630;2023-06-22T02:36:49;22.01;68.23
74968;SHT30;63523;51.880;12.630;2023-06-22T02:39:22;22.01;67.47
74968;SHT30;63523;51.880;12.630;2023-06-22T02:41:48;22.11;66.71
74968;SHT30;63523;51.880;12.630;2023-06-22T02:44:13;22.31;65.77
74968;SHT30;63523;51.880;12.630;2023-06-22T02:46:39;22.35;65.87
74968;SHT30;63523;51.880;12.630;2023-06-22T02:49:04;22.30;66.21
74968;SHT30;63523;51.880;12.630;2023-06-22T02:51:32;22.34;65.89
74968;SHT30;63523;51.880;12.630;2023-06-22T02:53:59;22.45;65.68
74968;SHT30;63523;51.880;12.630;2023-06-22T02:56:24;22.45;65.62
74968;SHT30;63523;51.880;12.630;2023-06-22T02:58:49;22.38;65.64
74968;SHT30;63523;51.880;12.630;2023-06-22T03:01:15;22.38;65.46
74968;SHT30;63523;51.880;12.630;2023-06-22T03:03:40;22.42;65.20
74968;SHT30;63523;51.880;12.630;2023-06-22T03:06:06;22.52;64.50
74968;SHT30;63523;51.880;12.630;2023-06-22T03:08:31;22.56;64.67
74968;SHT30;63523;51.880;12.630;2023-06-22T03:10:56;22.59;64.71
74968;SHT30;63523;51.880;12.630;2023-06-22T03:13:21;22.55;64.82
74968;SHT30;63523;51.880;12.630;2023-06-22T03:15:47;22.52;64.79
74968;SHT30;63523;51.880;12.630;2023-06-22T03:18:12;22.49;65.06
74968;SHT30;63523;51.880;12.630;2023-06-22T03:20:37;22.51;65.06
74968;SHT30;63523;51.880;12.630;2023-06-22T03:23:03;22.58;64.54
74968;SHT30;63523;51.880;12.630;2023-06-22T03:25:28;22.56;64.72
74968;SHT30;63523;51.880;12.630;2023-06-22T03:27:53;22.51;65.00
74968;SHT30;63523;51.880;12.630;2023-06-22T03:30:19;22.48;65.15
74968;SHT30;63523;51.880;12.630;2023-06-22T03:32:44;22.38;65.54
74968;SHT30;63523;51.880;12.630;2023-06-22T03:35:09;22.38;65.20
74968;SHT30;63523;51.880;12.630;2023-06-22T03:37:35;22.47;65.40
74968;SHT30;63523;51.880;12.630;2023-06-22T03:40:00;22.37;65.64
74968;SHT30;63523;51.880;12.630;2023-06-22T03:42:26;22.38;65.69
74968;SHT30;63523;51.880;12.630;2023-06-22T03:44:51;22.34;65.78
74968;SHT30;63523;51.880;12.630;2023-06-22T03:47:17;22.31;66.04
74968;SHT30;63523;51.880;12.630;2023-06-22T03:49:42;22.22;66.21
74968;SHT30;63523;51.880;12.630;2023-06-22T03:52:07;22.27;66.29
74968;SHT30;63523;51.880;12.630;2023-06-22T03:54:33;22.31;65.92
74968;SHT30;63523;51.880;12.630;2023-06-22T03:56:58;22.30;66.17
74968;SHT30;63523;51.880;12.630;2023-06-22T03:59:24;22.30;66.54
74968;SHT30;63523;51.880;12.630;2023-06-22T04:01:49;22.30;66.77
74968;SHT30;63523;51.880;12.630;2023-06-22T04:04:16;22.30;67.06
74968;SHT30;63523;51.880;12.630;2023-06-22T04:06:41;22.37;67.11
74968;SHT30;63523;51.880;12.630;2023-06-22T04:09:06;22.52;66.16
74968;SHT30;63523;51.880;12.630;2023-06-22T04:11:32;22.55;66.16
74968;SHT30;63523;51.880;12.630;2023-06-22T04:13:57;22.58;66.33
74968;SHT30;63523;51.880;12.630;2023-06-22T04:16:23;22.63;66.33
74968;SHT30;63523;51.880;12.630;2023-06-22T04:18:48;22.60;66.34
74968;SHT30;63523;51.880;12.630;2023-06-22T04:21:13;22.60;66.34
74968;SHT30;63523;51.880;12.630;2023-06-22T04:23:38;22.69;66.22
74968;SHT30;63523;51.880;12.630;2023-06-22T04:26:04;22.75;66.06
74968;SHT30;63523;51.880;12.630;2023-06-22T04:28:29;22.77;66.00
74968;SHT30;63523;51.880;12.630;2023-06-22T04:31:03;22.95;65.53
74968;SHT30;63523;51.880;12.630;2023-06-22T04:33:30;23.07;65.07
74968;SHT30;63523;51.880;12.630;2023-06-22T04:35:55;23.13;65.03
74968;SHT30;63523;51.880;12.630;2023-06-22T04:38:24;23.28;64.85
74968;SHT30;63523;51.880;12.630;2023-06-22T04:40:50;23.27;64.67
74968;SHT30;63523;51.880;12.630;2023-06-22T04:43:16;23.27;64.59
74968;SHT30;63523;51.880;12.630;2023-06-22T04:45:41;23.24;64.60
74968;SHT30;63523;51.880;12.630;2023-06-22T04:48:06;23.27;64.63
74968;SHT30;63523;51.880;12.630;2023-06-22T04:50:33;23.34;64.19
74968;SHT30;63523;51.880;12.630;2023-06-22T04:52:58;23.31;64.46
74968;SHT30;63523;51.880;12.630;2023-06-22T04:55:24;23.31;64.60
74968;SHT30;63523;51.880;12.630;2023-06-22T04:57:51;23.31;64.43
74968;SHT30;63523;51.880;12.630;2023-06-22T05:00:20;23.31;64.86
74968;SHT30;63523;51.880;12.630;2023-06-22T05:02:48;23.35;64.63
74968;SHT30;63523;51.880;12.630;2023-06-22T05:05:14;23.38;64.38
74968;SHT30;63523;51.880;12.630;2023-06-22T05:07:43;23.47;64.06
74968;SHT30;63523;51.880;12.630;2023-06-22T05:10:10;23.51;64.25
74968;SHT30;63523;51.880;12.630;2023-06-22T05:12:36;23.55;63.89
74968;SHT30;63523;51.880;12.630;2023-06-22T05:15:02;23.62;64.26
74968;SHT30;63523;51.880;12.630;2023-06-22T05:17:27;23.68;63.51
74968;SHT30;63523;51.880;12.630;2023-06-22T05:19:53;23.70;63.64
74968;SHT30;63523;51.880;12.630;2023-06-22T05:22:19;23.55;63.87
74968;SHT30;63523;51.880;12.630;2023-06-22T05:24:45;23.59;64.10
74968;SHT30;63523;51.880;12.630;2023-06-22T05:27:10;23.58;64.06
74968;SHT30;63523;51.880;12.630;2023-06-22T05:29:38;23.63;63.83
74968;SHT30;63523;51.880;12.630;2023-06-22T05:32:04;23.65;63.95
74968;SHT30;63523;51.880;12.630;2023-06-22T05:34:30;23.79;63.64
74968;SHT30;63523;51.880;12.630;2023-06-22T05:36:55;23.70;64.10
74968;SHT30;63523;51.880;12.630;2023-06-22T05:39:20;23.68;63.84
74968;SHT30;63523;51.880;12.630;2023-06-22T05:41:46;23.69;64.26
74968;SHT30;63523;51.880;12.630;2023-06-22T05:44:11;23.65;63.88
74968;SHT30;63523;51.880;12.630;2023-06-22T05:46:40;23.68;64.05
74968;SHT30;63523;51.880;12.630;2023-06-22T05:49:09;23.62;64.18
74968;SHT30;63523;51.880;12.630;2023-06-22T05:51:34;23.69;64.32
74968;SHT30;63523;51.880;12.630;2023-06-22T05:54:00;23.69;63.91
74968;SHT30;63523;51.880;12.630;2023-06-22T05:56:25;23.77;64.46
74968;SHT30;63523;51.880;12.630;2023-06-22T05:58:50;23.89;64.07
74968;SHT30;63523;51.880;12.630;2023-06-22T06:01:16;24.09;63.33
74968;SHT30;63523;51.880;12.630;2023-06-22T06:03:41;24.22;62.92
74968;SHT30;63523;51.880;12.630;2023-06-22T06:06:07;24.35;62.82
74968;SHT30;63523;51.880;12.630;2023-06-22T06:08:33;24.49;61.77
74968;SHT30;63523;51.880;12.630;2023-06-22T06:10:58;24.57;62.01
74968;SHT30;63523;51.880;12.630;2023-06-22T06:13:24;24.75;61.29
74968;SHT30;63523;51.880;12.630;2023-06-22T06:15:49;24.87;60.93
74968;SHT30;63523;51.880;12.630;2023-06-22T06:18:16;24.87;60.62
74968;SHT30;63523;51.880;12.630;2023-06-22T06:20:42;24.89;60.53
74968;SHT30;63523;51.880;12.630;2023-06-22T06:23:07;24.76;61.14
74968;SHT30;63523;51.880;12.630;2023-06-22T06:25:32;24.89;60.95
74968;SHT30;63523;51.880;12.630;2023-06-22T06:27:58;24.96;60.37
74968;SHT30;63523;51.880;12.630;2023-06-22T06:30:23;24.85;60.44
74968;SHT30;63523;51.880;12.630;2023-06-22T06:32:49;24.89;60.71
74968;SHT30;63523;51.880;12.630;2023-06-22T06:35:15;25.03;59.73
74968;SHT30;63523;51.880;12.630;2023-06-22T06:37:47;25.00;60.26
74968;SHT30;63523;51.880;12.630;2023-06-22T06:40:13;25.14;59.84
74968;SHT30;63523;51.880;12.630;2023-06-22T06:42:43;25.28;58.95
74968;SHT30;63523;51.880;12.630;2023-06-22T06:45:16;25.33;59.01
74968;SHT30;63523;51.880;12.630;2023-06-22T06:47:42;25.54;58.47
74968;SHT30;63523;51.880;12.630;2023-06-22T06:50:08;25.64;57.77
74968;SHT30;63523;51.880;12.630;2023-06-22T06:52:33;25.78;58.20
74968;SHT30;63523;51.880;12.630;2023-06-22T06:54:59;25.89;57.45
74968;SHT30;63523;51.880;12.630;2023-06-22T06:57:24;25.92;57.69
74968;SHT30;63523;51.880;12.630;2023-06-22T06:59:54;25.93;56.53
74968;SHT30;63523;51.880;12.630;2023-06-22T07:02:20;25.81;57.73
74968;SHT30;63523;51.880;12.630;2023-06-22T07:04:45;25.94;57.58
74968;SHT30;63523;51.880;12.630;2023-06-22T07:07:11;25.99;56.77
74968;SHT30;63523;51.880;12.630;2023-06-22T07:09:37;26.03;57.29
74968;SHT30;63523;51.880;12.630;2023-06-22T07:12:02;26.19;57.10
74968;SHT30;63523;51.880;12.630;2023-06-22T07:14:27;26.31;56.58
74968;SHT30;63523;51.880;12.630;2023-06-22T07:16:53;26.26;56.43
74968;SHT30;63523;51.880;12.630;2023-06-22T07:19:24;26.43;56.16
74968;SHT30;63523;51.880;12.630;2023-06-22T07:21:50;26.36;55.31
74968;SHT30;63523;51.880;12.630;2023-06-22T07:24:16;26.34;55.67
74968;SHT30;63523;51.880;12.630;2023-06-22T07:26:41;26.34;56.25
74968;SHT30;63523;51.880;12.630;2023-06-22T07:29:10;26.43;56.15
74968;SHT30;63523;51.880;12.630;2023-06-22T07:31:36;26.59;54.88
74968;SHT30;63523;51.880;12.630;2023-06-22T07:34:01;26.56;55.34
74968;SHT30;63523;51.880;12.630;2023-06-22T07:36:26;26.75;54.91
74968;SHT30;63523;51.880;12.630;2023-06-22T07:38:51;26.96;53.83
74968;SHT30;63523;51.880;12.630;2023-06-22T07:41:17;27.00;53.31
74968;SHT30;63523;51.880;12.630;2023-06-22T07:43:44;27.00;52.96
74968;SHT30;63523;51.880;12.630;2023-06-22T07:46:09;26.91;52.74
74968;SHT30;63523;51.880;12.630;2023-06-22T07:48:37;26.85;52.70
74968;SHT30;63523;51.880;12.630;2023-06-22T07:51:02;26.79;53.31
74968;SHT30;63523;51.880;12.630;2023-06-22T07:53:27;26.75;53.77
74968;SHT30;63523;51.880;12.630;2023-06-22T07:55:53;26.91;53.20
74968;SHT30;63523;51.880;12.630;2023-06-22T07:58:18;26.91;52.95
74968;SHT30;63523;51.880;12.630;2023-06-22T08:00:45;26.93;52.59
74968;SHT30;63523;51.880;12.630;2023-06-22T08:03:11;26.82;52.80
74968;SHT30;63523;51.880;12.630;2023-06-22T08:05:36;26.91;52.28
74968;SHT30;63523;51.880;12.630;2023-06-22T08:08:01;27.09;52.35
74968;SHT30;63523;51.880;12.630;2023-06-22T08:10:27;27.27;52.48
74968;SHT30;63523;51.880;12.630;2023-06-22T08:12:52;27.57;51.34
74968;SHT30;63523;51.880;12.630;2023-06-22T08:15:17;27.65;51.25
74968;SHT30;63523;51.880;12.630;2023-06-22T08:17:44;27.50;51.44
74968;SHT30;63523;51.880;12.630;2023-06-22T08:20:09;27.61;50.92
74968;SHT30;63523;51.880;12.630;2023-06-22T08:22:37;27.79;50.97
74968;SHT30;63523;51.880;12.630;2023-06-22T08:25:03;27.89;50.98
74968;SHT30;63523;51.880;12.630;2023-06-22T08:27:31;28.05;50.35
74968;SHT30;63523;51.880;12.630;2023-06-22T08:29:58;28.07;50.64
74968;SHT30;63523;51.880;12.630;2023-06-22T08:32:24;27.96;50.75
74968;SHT30;63523;51.880;12.630;2023-06-22T08:34:52;28.14;49.28
74968;SHT30;63523;51.880;12.630;2023-06-22T08:37:17;28.06;50.14
74968;SHT30;63523;51.880;12.630;2023-06-22T08:39:42;28.09;50.19
74968;SHT30;63523;51.880;12.630;2023-06-22T08:42:08;28.28;49.76
74968;SHT30;63523;51.880;12.630;2023-06-22T08:44:33;28.45;48.62
74968;SHT30;63523;51.880;12.630;2023-06-22T08:46:58;28.54;49.16
74968;SHT30;63523;51.880;12.630;2023-06-22T08:49:24;28.67;48.22
74968;SHT30;63523;51.880;12.630;2023-06-22T08:51:49;28.53;48.66
74968;SHT30;63523;51.880;12.630;2023-06-22T08:54:14;28.60;49.02
74968;SHT30;63523;51.880;12.630;2023-06-22T08:56:40;28.76;47.88
74968;SHT30;63523;51.880;12.630;2023-06-22T08:59:05;28.96;48.17
74968;SHT30;63523;51.880;12.630;2023-06-22T09:01:32;29.17;47.39
74968;SHT30;63523;51.880;12.630;2023-06-22T09:03:58;29.23;46.87
74968;SHT30;63523;51.880;12.630;2023-06-22T09:06:24;29.31;47.62
74968;SHT30;63523;51.880;12.630;2023-06-22T09:08:50;29.38;47.28
74968;SHT30;63523;51.880;12.630;2023-06-22T09:11:15;29.53;46.66
74968;SHT30;63523;51.880;12.630;2023-06-22T09:13:41;29.79;45.63
74968;SHT30;63523;51.880;12.630;2023-06-22T09:16:06;29.71;45.96
74968;SHT30;63523;51.880;12.630;2023-06-22T09:18:31;29.79;46.06
74968;SHT30;63523;51.880;12.630;2023-06-22T09:20:57;29.90;45.46
74968;SHT30;63523;51.880;12.630;2023-06-22T09:23:22;29.93;45.76
74968;SHT30;63523;51.880;12.630;2023-06-22T09:25:47;30.08;45.28
74968;SHT30;63523;51.880;12.630;2023-06-22T09:28:13;30.22;44.82
74968;SHT30;63523;51.880;12.630;2023-06-22T09:30:39;30.13;45.06
74968;SHT30;63523;51.880;12.630;2023-06-22T09:33:04;29.55;46.24
74968;SHT30;63523;51.880;12.630;2023-06-22T09:35:29;29.30;46.67
74968;SHT30;63523;51.880;12.630;2023-06-22T09:37:54;29.26;47.47
74968;SHT30;63523;51.880;12.630;2023-06-22T09:40:20;29.17;47.03
74968;SHT30;63523;51.880;12.630;2023-06-22T09:42:45;29.33;47.43
74968;SHT30;63523;51.880;12.630;2023-06-22T09:45:10;29.43;47.62
74968;SHT30;63523;51.880;12.630;2023-06-22T09:47:36;29.43;47.54
74968;SHT30;63523;51.880;12.630;2023-06-22T09:50:01;29.64;47.17
74968;SHT30;63523;51.880;12.630;2023-06-22T09:52:26;29.95;46.16
74968;SHT30;63523;51.880;12.630;2023-06-22T09:54:52;29.92;46.07
74968;SHT30;63523;51.880;12.630;2023-06-22T09:57:17;29.98;45.91
74968;SHT30;63523;51.880;12.630;2023-06-22T09:59:42;30.01;46.24
74968;SHT30;63523;51.880;12.630;2023-06-22T10:02:08;30.40;44.75
74968;SHT30;63523;51.880;12.630;2023-06-22T10:04:34;30.32;45.00
74968;SHT30;63523;51.880;12.630;2023-06-22T10:06:59;30.43;44.68
74968;SHT30;63523;51.880;12.630;2023-06-22T10:09:24;30.32;45.26
74968;SHT30;63523;51.880;12.630;2023-06-22T10:11:50;30.26;45.58
74968;SHT30;63523;51.880;12.630;2023-06-22T10:14:15;30.37;44.97
74968;SHT30;63523;51.880;12.630;2023-06-22T10:16:41;30.53;43.92
74968;SHT30;63523;51.880;12.630;2023-06-22T10:19:07;30.69;43.31
74968;SHT30;63523;51.880;12.630;2023-06-22T10:21:32;30.78;43.33
74968;SHT30;63523;51.880;12.630;2023-06-22T10:23:58;30.77;43.64
74968;SHT30;63523;51.880;12.630;2023-06-22T10:26:24;30.63;44.25
74968;SHT30;63523;51.880;12.630;2023-06-22T10:28:50;30.67;43.74
74968;SHT30;63523;51.880;12.630;2023-06-22T10:31:15;30.56;43.40
74968;SHT30;63523;51.880;12.630;2023-06-22T10:33:41;30.47;43.57
74968;SHT30;63523;51.880;12.630;2023-06-22T10:36:09;30.54;43.80
74968;SHT30;63523;51.880;12.630;2023-06-22T10:38:34;30.75;43.42
74968;SHT30;63523;51.880;12.630;2023-06-22T10:40:59;31.12;42.79
74968;SHT30;63523;51.880;12.630;2023-06-22T10:43:25;31.51;41.72
74968;SHT30;63523;51.880;12.630;2023-06-22T10:45:50;31.37;42.51
74968;SHT30;63523;51.880;12.630;2023-06-22T10:48:15;31.33;41.05
74968;SHT30;63523;51.880;12.630;2023-06-22T10:50:40;31.60;40.97
74968;SHT30;63523;51.880;12.630;2023-06-22T10:53:06;31.44;41.25
74968;SHT30;63523;51.880;12.630;2023-06-22T10:55:31;31.66;40.86
74968;SHT30;63523;51.880;12.630;2023-06-22T10:57:56;31.92;40.63
74968;SHT30;63523;51.880;12.630;2023-06-22T11:00:21;32.13;40.54
74968;SHT30;63523;51.880;12.630;2023-06-22T11:02:47;32.60;38.84
74968;SHT30;63523;51.880;12.630;2023-06-22T11:05:12;33.07;37.55
74968;SHT30;63523;51.880;12.630;2023-06-22T11:07:41;33.02;37.38
74968;SHT30;63523;51.880;12.630;2023-06-22T11:10:07;33.32;37.60
74968;SHT30;63523;51.880;12.630;2023-06-22T11:12:32;33.49;36.29
74968;SHT30;63523;51.880;12.630;2023-06-22T11:14:57;33.39;36.46
74968;SHT30;63523;51.880;12.630;2023-06-22T11:17:23;33.76;36.25
74968;SHT30;63523;51.880;12.630;2023-06-22T11:19:48;34.11;35.22
74968;SHT30;63523;51.880;12.630;2023-06-22T11:22:13;34.26;35.92
74968;SHT30;63523;51.880;12.630;2023-06-22T11:24:39;34.29;35.44
74968;SHT30;63523;51.880;12.630;2023-06-22T11:27:04;33.87;36.54
74968;SHT30;63523;51.880;12.630;2023-06-22T11:29:30;33.90;36.51
74968;SHT30;63523;51.880;12.630;2023-06-22T11:31:56;33.91;36.87
74968;SHT30;63523;51.880;12.630;2023-06-22T11:34:21;34.43;35.54
74968;SHT30;63523;51.880;12.630;2023-06-22T11:36:46;34.80;35.05
74968;SHT30;63523;51.880;12.630;2023-06-22T11:39:13;34.89;34.45
74968;SHT30;63523;51.880;12.630;2023-06-22T11:41:40;34.60;35.08
74968;SHT30;63523;51.880;12.630;2023-06-22T11:44:05;34.17;35.77
74968;SHT30;63523;51.880;12.630;2023-06-22T11:46:32;34.09;36.02
74968;SHT30;63523;51.880;12.630;2023-06-22T11:48:57;34.01;36.30
74968;SHT30;63523;51.880;12.630;2023-06-22T11:51:22;34.14;36.07
74968;SHT30;63523;51.880;12.630;2023-06-22T11:53:47;33.91;35.72
74968;SHT30;63523;51.880;12.630;2023-06-22T11:56:13;33.59;36.66
74968;SHT30;63523;51.880;12.630;2023-06-22T11:58:38;33.32;37.09
74968;SHT30;63523;51.880;12.630;2023-06-22T12:01:03;33.17;37.56
74968;SHT30;63523;51.880;12.630;2023-06-22T12:03:30;33.01;37.80
74968;SHT30;63523;51.880;12.630;2023-06-22T12:05:55;32.83;37.92
74968;SHT30;63523;51.880;12.630;2023-06-22T12:08:20;32.77;38.47
74968;SHT30;63523;51.880;12.630;2023-06-22T12:10:46;32.75;37.51
74968;SHT30;63523;51.880;12.630;2023-06-22T12:13:11;32.60;38.01
74968;SHT30;63523;51.880;12.630;2023-06-22T12:15:36;32.35;38.80
74968;SHT30;63523;51.880;12.630;2023-06-22T12:18:02;32.39;38.64
74968;SHT30;63523;51.880;12.630;2023-06-22T12:20:27;32.59;38.24
74968;SHT30;63523;51.880;12.630;2023-06-22T12:22:53;32.71;37.76
74968;SHT30;63523;51.880;12.630;2023-06-22T12:25:20;32.63;38.41
74968;SHT30;63523;51.880;12.630;2023-06-22T12:27:45;32.64;39.35
74968;SHT30;63523;51.880;12.630;2023-06-22T12:30:11;32.71;37.82
74968;SHT30;63523;51.880;12.630;2023-06-22T12:32:36;32.49;38.11
74968;SHT30;63523;51.880;12.630;2023-06-22T12:35:01;32.46;38.87
74968;SHT30;63523;51.880;12.630;2023-06-22T12:37:27;32.29;39.23
74968;SHT30;63523;51.880;12.630;2023-06-22T12:39:54;32.50;39.34
74968;SHT30;63523;51.880;12.630;2023-06-22T12:42:19;32.55;38.90
74968;SHT30;63523;51.880;12.630;2023-06-22T12:44:46;32.16;39.32
74968;SHT30;63523;51.880;12.630;2023-06-22T12:47:11;31.91;39.95
74968;SHT30;63523;51.880;12.630;2023-06-22T12:49:36;32.12;39.19
74968;SHT30;63523;51.880;12.630;2023-06-22T12:52:02;32.12;39.18
74968;SHT30;63523;51.880;12.630;2023-06-22T12:54:28;32.28;38.82
74968;SHT30;63523;51.880;12.630;2023-06-22T12:56:56;32.32;39.64
74968;SHT30;63523;51.880;12.630;2023-06-22T12:59:21;32.66;38.20
74968;SHT30;63523;51.880;12.630;2023-06-22T13:01:47;32.49;38.49
74968;SHT30;63523;51.880;12.630;2023-06-22T13:04:12;32.46;39.21
74968;SHT30;63523;51.880;12.630;2023-06-22T13:06:42;32.59;38.46
74968;SHT30;63523;51.880;12.630;2023-06-22T13:09:09;32.33;39.03
74968;SHT30;63523;51.880;12.630;2023-06-22T13:11:35;32.16;38.89
74968;SHT30;63523;51.880;12.630;2023-06-22T13:14:00;32.32;39.19
74968;SHT30;63523;51.880;12.630;2023-06-22T13:16:25;32.56;38.01
74968;SHT30;63523;51.880;12.630;2023-06-22T13:18:50;32.61;38.38
74968;SHT30;63523;51.880;12.630;2023-06-22T13:21:16;32.57;38.73
74968;SHT30;63523;51.880;12.630;2023-06-22T13:23:41;32.60;37.97
74968;SHT30;63523;51.880;12.630;2023-06-22T13:26:07;32.44;38.37
74968;SHT30;63523;51.880;12.630;2023-06-22T13:28:32;32.36;37.99
74968;SHT30;63523;51.880;12.630;2023-06-22T13:30:57;32.33;38.15
74968;SHT30;63523;51.880;12.630;2023-06-22T13:33:23;32.28;38.46
74968;SHT30;63523;51.880;12.630;2023-06-22T13:35:48;32.25;39.31
74968;SHT30;63523;51.880;12.630;2023-06-22T13:38:13;32.26;39.21
74968;SHT30;63523;51.880;12.630;2023-06-22T13:40:38;32.36;38.87
74968;SHT30;63523;51.880;12.630;2023-06-22T13:43:04;32.29;38.40
74968;SHT30;63523;51.880;12.630;2023-06-22T13:45:30;32.15;38.73
74968;SHT30;63523;51.880;12.630;2023-06-22T13:47:55;32.46;37.68
74968;SHT30;63523;51.880;12.630;2023-06-22T13:50:21;32.43;38.48
74968;SHT30;63523;51.880;12.630;2023-06-22T13:52:46;32.30;38.37
74968;SHT30;63523;51.880;12.630;2023-06-22T13:55:11;32.30;38.44
74968;SHT30;63523;51.880;12.630;2023-06-22T13:57:39;32.11;38.47
74968;SHT30;63523;51.880;12.630;2023-06-22T14:00:04;32.02;39.06
74968;SHT30;63523;51.880;12.630;2023-06-22T14:02:31;31.96;38.64
74968;SHT30;63523;51.880;12.630;2023-06-22T14:04:56;32.08;38.96
74968;SHT30;63523;51.880;12.630;2023-06-22T14:07:22;32.25;38.82
74968;SHT30;63523;51.880;12.630;2023-06-22T14:09:49;32.36;38.97
74968;SHT30;63523;51.880;12.630;2023-06-22T14:12:14;32.46;38.25
74968;SHT30;63523;51.880;12.630;2023-06-22T14:14:41;32.73;37.32
74968;SHT30;63523;51.880;12.630;2023-06-22T14:17:06;32.67;37.01
74968;SHT30;63523;51.880;12.630;2023-06-22T14:19:31;32.47;37.24
74968;SHT30;63523;51.880;12.630;2023-06-22T14:21:57;32.26;37.79
74968;SHT30;63523;51.880;12.630;2023-06-22T14:24:23;32.08;37.99
74968;SHT30;63523;51.880;12.630;2023-06-22T14:26:48;32.05;38.06
74968;SHT30;63523;51.880;12.630;2023-06-22T14:29:13;32.13;37.92
74968;SHT30;63523;51.880;12.630;2023-06-22T14:31:38;32.12;38.56
74968;SHT30;63523;51.880;12.630;2023-06-22T14:34:04;32.37;37.53
74968;SHT30;63523;51.880;12.630;2023-06-22T14:36:30;32.59;37.11
74968;SHT30;63523;51.880;12.630;2023-06-22T14:38:56;32.66;37.59
74968;SHT30;63523;51.880;12.630;2023-06-22T14:41:21;32.73;36.90
74968;SHT30;63523;51.880;12.630;2023-06-22T14:43:47;32.52;37.33
74968;SHT30;63523;51.880;12.630;2023-06-22T14:46:14;32.41;37.49
74968;SHT30;63523;51.880;12.630;2023-06-22T14:48:40;32.53;37.27
74968;SHT30;63523;51.880;12.630;2023-06-22T14:51:05;32.41;37.93
74968;SHT30;63523;51.880;12.630;2023-06-22T14:53:30;32.37;38.05
74968;SHT30;63523;51.880;12.630;2023-06-22T14:55:56;32.44;37.39
74968;SHT30;63523;51.880;12.630;2023-06-22T14:58:21;32.40;37.97
74968;SHT30;63523;51.880;12.630;2023-06-22T15:00:46;32.44;37.79
74968;SHT30;63523;51.880;12.630;2023-06-22T15:03:12;32.23;37.31
74968;SHT30;63523;51.880;12.630;2023-06-22T15:05:42;31.95;38.19
74968;SHT30;63523;51.880;12.630;2023-06-22T15:08:08;31.95;38.89
74968;SHT30;63523;51.880;12.630;2023-06-22T15:10:33;32.02;38.12